Time;durP1;ratioP1;P1;durP2;ratioP2;P2;SDS_P1;SDS_P2;PMS_P1;PMS_P2;Temp;Humidity;BMP_temperature;BMP_pressure;BME280_temperature;BME280_humidity;BME280_pressure;Samples;Min_cycle;Max_cycle;Signal;HPM_P1;HPM_P2
2022/01/22 00:00:24;;;;;;;3.10;1.08;;;6.70;99.90;;;;;;5005891;28;20025;-72
2022/01/22 00:02:50;;;;;;;6.80;1.35;;;6.70;99.90;;;;;;5004956;28;20065;-72
2022/01/22 00:05:19;;;;;;;3.05;1.50;;;6.60;99.90;;;;;;5004714;28;20037;-74
2022/01/22 00:07:45;;;;;;;5.68;1.58;;;6.70;99.90;;;;;;5005521;28;20034;-71
2022/01/22 00:10:14;;;;;;;0.82;0.50;;;6.70;99.90;;;;;;5005914;28;20033;-71
2022/01/22 00:13:06;;;;;;;5.05;1.63;;;6.60;99.90;;;;;;5005149;28;20081;-72
2022/01/22 00:15:32;;;;;;;4.30;1.33;;;6.70;99.90;;;;;;5004680;28;20058;-71
2022/01/22 00:17:58;;;;;;;5.50;1.05;;;6.60;99.90;;;;;;5005640;28;20041;-72
2022/01/22 00:20:25;;;;;;;3.33;0.75;;;6.80;99.90;;;;;;5005249;28;20034;-73
2022/01/22 00:22:51;;;;;;;4.60;0.73;;;6.70;99.90;;;;;;5005614;28;20030;-70
2022/01/22 00:25:19;;;;;;;2.58;0.95;;;6.60;99.90;;;;;;5005544;28;20030;-73
2022/01/22 00:27:48;;;;;;;0.65;0.52;;;6.60;99.90;;;;;;5003009;28;20097;-72
2022/01/22 00:30:20;;;;;;;2.78;1.38;;;6.60;99.90;;;;;;4999278;28;20034;-72
2022/01/22 00:32:46;;;;;;;10.98;1.02;;;6.60;99.90;;;;;;4995150;28;20026;-72
2022/01/22 00:35:13;;;;;;;1.65;0.95;;;6.70;99.90;;;;;;5004855;28;20109;-72
2022/01/22 00:37:44;;;;;;;1.83;0.40;;;6.60;99.90;;;;;;5005364;28;20023;-74
2022/01/22 00:40:11;;;;;;;2.80;1.23;;;6.60;99.90;;;;;;5005421;28;20022;-73
2022/01/22 00:42:41;;;;;;;10.45;1.80;;;6.60;99.90;;;;;;5003871;28;20038;-73
2022/01/22 00:45:09;;;;;;;4.93;1.58;;;6.60;99.90;;;;;;5004945;28;20030;-72
2022/01/22 00:47:38;;;;;;;1.45;0.73;;;6.60;99.90;;;;;;5004946;28;20085;-73
2022/01/22 00:50:05;;;;;;;6.25;1.40;;;6.70;99.90;;;;;;5003517;28;20033;-73
2022/01/22 00:52:31;;;;;;;9.23;1.88;;;6.60;99.90;;;;;;5005096;28;20049;-72
2022/01/22 00:54:57;;;;;;;9.25;1.58;;;6.70;99.90;;;;;;5004535;28;20034;-72
2022/01/22 00:57:22;;;;;;;10.70;2.13;;;6.70;99.90;;;;;;5004835;28;20026;-73
2022/01/22 00:59:48;;;;;;;7.90;1.13;;;6.60;99.90;;;;;;5005195;28;20026;-72
2022/01/22 01:02:14;;;;;;;5.97;1.33;;;6.60;99.90;;;;;;4986886;28;20073;-73
2022/01/22 01:04:40;;;;;;;5.78;2.15;;;6.70;99.90;;;;;;4987773;28;20113;-73
2022/01/22 01:07:06;;;;;;;5.65;0.90;;;6.70;99.90;;;;;;5004843;28;20175;-73
2022/01/22 01:09:33;;;;;;;16.80;1.55;;;6.70;99.90;;;;;;5004858;28;20030;-73
2022/01/22 01:12:03;;;;;;;8.43;1.48;;;6.70;99.90;;;;;;5005005;28;20107;-72
2022/01/22 01:14:41;;;;;;;6.32;1.50;;;6.70;99.90;;;;;;5003886;28;20475;-73
2022/01/22 01:17:23;;;;;;;3.20;1.17;;;6.60;99.90;;;;;;5003594;28;20048;-73
2022/01/22 01:34:02;;;;;;;15.48;1.55;;;6.80;99.90;;;;;;4963266;29;19929;-72
2022/01/22 01:36:28;;;;;;;8.48;2.30;;;6.80;99.90;;;;;;4963606;29;20125;-72
2022/01/22 01:38:58;;;;;;;7.25;2.25;;;6.70;99.90;;;;;;4985384;28;20093;-72
2022/01/22 01:41:34;;;;;;;7.90;2.72;;;6.70;99.90;;;;;;5009014;28;20027;-72
2022/01/22 01:43:59;;;;;;;8.25;1.80;;;6.70;99.90;;;;;;5008658;28;20023;-73
2022/01/22 01:46:29;;;;;;;11.75;2.17;;;6.80;99.90;;;;;;5008040;28;20038;-73
2022/01/22 01:48:54;;;;;;;5.43;1.65;;;6.70;99.90;;;;;;4991181;28;20031;-72
2022/01/22 01:51:23;;;;;;;2.95;1.13;;;6.70;99.90;;;;;;5008133;28;20098;-73
2022/01/22 01:54:27;;;;;;;6.40;1.50;;;6.80;99.90;;;;;;5008241;28;20022;-72
2022/01/22 01:59:19;;;;;;;8.80;1.65;;;6.70;99.90;;;;;;5007511;28;20057;-73
2022/01/22 02:01:44;;;;;;;4.03;1.52;;;6.70;99.90;;;;;;5007842;28;20026;-72
2022/01/22 02:04:13;;;;;;;14.23;1.73;;;6.70;99.90;;;;;;4990905;28;20027;-73
2022/01/22 02:06:39;;;;;;;13.27;2.15;;;6.70;99.90;;;;;;5008249;28;20475;-73
2022/01/22 02:09:07;;;;;;;12.88;2.00;;;6.70;99.90;;;;;;5008235;28;20395;-71
2022/01/22 02:11:34;;;;;;;17.27;1.42;;;6.70;99.90;;;;;;5008114;28;20034;-74
2022/01/22 02:24:49;;;;;;;10.30;2.03;;;6.80;99.90;;;;;;5007856;28;20033;-73
2022/01/22 02:27:15;;;;;;;2.70;1.10;;;6.70;99.90;;;;;;5007672;28;20035;-72
2022/01/22 02:29:41;;;;;;;4.60;1.35;;;6.70;99.90;;;;;;5007857;28;20073;-74
2022/01/22 02:37:48;;;;;;;15.38;2.13;;;6.60;99.90;;;;;;5007754;28;20059;-73
2022/01/22 02:40:22;;;;;;;9.48;2.15;;;6.70;99.90;;;;;;5007702;28;20066;-73
2022/01/22 02:42:47;;;;;;;10.10;2.42;;;6.70;99.90;;;;;;5007469;28;20022;-72
2022/01/22 02:45:18;;;;;;;6.38;1.63;;;6.70;99.90;;;;;;4989992;28;20050;-74
2022/01/22 02:47:44;;;;;;;27.75;2.17;;;6.60;99.90;;;;;;5006820;28;20367;-74
2022/01/22 02:50:10;;;;;;;3.63;1.17;;;6.60;99.90;;;;;;5007227;28;20018;-74
2022/01/22 02:52:36;;;;;;;8.75;1.65;;;6.60;99.90;;;;;;4989585;28;20031;-74
2022/01/22 02:55:06;;;;;;;10.73;1.00;;;6.70;99.90;;;;;;5006575;28;20038;-73
2022/01/22 02:57:32;;;;;;;7.93;0.77;;;6.60;99.90;;;;;;5007221;28;20030;-72
2022/01/22 03:00:03;;;;;;;10.90;1.52;;;6.60;99.90;;;;;;5006028;28;20099;-74
2022/01/22 03:02:29;;;;;;;0.95;0.60;;;6.60;99.90;;;;;;5007206;28;20090;-72
2022/01/22 03:04:54;;;;;;;3.05;0.40;;;6.70;99.90;;;;;;5006995;28;20026;-74
2022/01/22 03:07:20;;;;;;;5.35;0.82;;;6.60;99.90;;;;;;5006523;28;20033;-72
2022/01/22 03:09:48;;;;;;;2.80;0.82;;;6.60;99.90;;;;;;5006953;28;20030;-73
2022/01/22 03:17:55;;;;;;;2.05;1.00;;;6.60;99.90;;;;;;5007522;28;20604;-74
2022/01/22 03:28:21;;;;;;;;;;;6.60;99.90;;;;;;5007087;28;20551;-75
2022/01/22 03:30:47;;;;;;;3.58;1.65;;;6.60;99.90;;;;;;5006098;28;19960;-73
2022/01/22 03:33:15;;;;;;;5.72;1.83;;;6.60;99.90;;;;;;4988233;28;20074;-74
2022/01/22 03:35:45;;;;;;;7.90;1.38;;;6.50;99.90;;;;;;4998575;28;20034;-73
2022/01/22 03:38:11;;;;;;;7.75;1.33;;;6.50;99.90;;;;;;5005801;28;20044;-74
2022/01/22 03:40:38;;;;;;;14.32;2.05;;;6.50;99.90;;;;;;5006489;28;20054;-72
2022/01/22 03:43:04;;;;;;;3.35;1.20;;;6.50;99.90;;;;;;5006295;28;20026;-74
2022/01/22 03:45:30;;;;;;;20.80;1.85;;;6.50;99.90;;;;;;5006604;28;20517;-72
2022/01/22 03:47:55;;;;;;;6.97;2.50;;;6.50;99.90;;;;;;5006085;28;20026;-74
2022/01/22 03:50:21;;;;;;;6.38;1.80;;;6.40;99.90;;;;;;5006102;28;20029;-72
2022/01/22 03:52:47;;;;;;;1.30;0.65;;;6.50;99.90;;;;;;5004855;28;20037;-74
2022/01/22 03:55:28;;;;;;;8.00;1.67;;;6.40;99.90;;;;;;5005983;28;20449;-72
2022/01/22 03:57:55;;;;;;;2.10;1.00;;;6.40;99.90;;;;;;5006117;28;20044;-73
2022/01/22 04:00:20;;;;;;;5.97;2.28;;;6.40;99.90;;;;;;5005529;28;20018;-72
2022/01/22 04:05:32;;;;;;;2.13;0.95;;;6.40;99.90;;;;;;5005389;28;20068;-74
2022/01/22 04:10:26;;;;;;;1.77;0.60;;;6.40;99.90;;;;;;5005732;28;20029;-74
2022/01/22 04:13:03;;;;;;;1.55;0.73;;;6.40;99.90;;;;;;5005802;28;20035;-73
2022/01/22 04:15:31;;;;;;;3.58;1.60;;;6.30;99.90;;;;;;4987454;28;20054;-73
2022/01/22 04:28:54;;;;;;;4.57;1.77;;;6.30;99.90;;;;;;5005228;28;20130;-73
2022/01/22 04:31:20;;;;;;;3.72;1.88;;;6.30;99.90;;;;;;5005384;28;20490;-72
2022/01/22 04:33:45;;;;;;;6.15;1.77;;;6.40;99.90;;;;;;5005134;28;20026;-73
2022/01/22 04:36:11;;;;;;;9.35;2.25;;;6.30;99.90;;;;;;5005842;28;20061;-73
2022/01/22 04:38:39;;;;;;;2.50;1.40;;;6.30;99.90;;;;;;5005471;28;20558;-72
2022/01/22 04:41:05;;;;;;;3.90;1.48;;;6.30;99.90;;;;;;5005445;28;20109;-73
2022/01/22 04:43:33;;;;;;;12.52;1.92;;;6.30;99.90;;;;;;5005568;28;20018;-74
2022/01/22 04:46:12;;;;;;;3.17;1.40;;;6.30;99.90;;;;;;5003334;28;20034;-72
2022/01/22 04:49:04;;;;;;;10.73;1.65;;;6.30;99.90;;;;;;5005191;28;20022;-73
2022/01/22 04:56:58;;;;;;;0.75;0.55;;;6.30;99.90;;;;;;5005427;28;20104;-72
2022/01/22 04:59:23;;;;;;;1.35;0.55;;;6.30;99.90;;;;;;5004927;28;20058;-72
2022/01/22 05:01:49;;;;;;;0.47;0.38;;;6.30;99.90;;;;;;5005032;28;20026;-74
2022/01/22 05:04:15;;;;;;;0.98;0.28;;;6.30;99.90;;;;;;5005160;28;20027;-73
2022/01/22 05:06:40;;;;;;;2.33;0.63;;;6.30;99.90;;;;;;5003394;28;20026;-76
2022/01/22 05:09:06;;;;;;;1.25;0.68;;;6.40;99.90;;;;;;5005434;28;20026;-73
2022/01/22 05:11:31;;;;;;;0.95;0.38;;;6.30;99.90;;;;;;5004567;28;20117;-74
2022/01/22 05:13:57;;;;;;;1.45;0.60;;;6.30;99.90;;;;;;5006303;28;20113;-75
2022/01/22 05:16:23;;;;;;;0.60;0.30;;;6.30;99.90;;;;;;5010957;28;20109;-72
2022/01/22 05:18:58;;;;;;;0.55;0.32;;;6.40;99.90;;;;;;4994057;28;20030;-75
2022/01/22 05:21:25;;;;;;;2.42;0.77;;;6.40;99.90;;;;;;4993782;28;20038;-74
2022/01/22 05:23:53;;;;;;;1.77;0.60;;;6.40;99.90;;;;;;5011278;28;20026;-74
2022/01/22 05:27:15;;;;;;;0.63;0.20;;;6.40;99.90;;;;;;5011003;28;20023;-73
2022/01/22 05:39:25;;;;;;;0.30;0.15;;;6.40;99.90;;;;;;5011590;28;20033;-73
2022/01/22 05:41:51;;;;;;;2.55;0.73;;;6.30;99.90;;;;;;5011238;28;20026;-73
2022/01/22 05:44:18;;;;;;;1.27;0.70;;;6.30;99.90;;;;;;5011056;28;20018;-76
2022/01/22 05:46:43;;;;;;;3.45;0.93;;;6.40;99.90;;;;;;5009515;28;20034;-75
2022/01/22 05:49:10;;;;;;;4.90;1.20;;;6.40;99.90;;;;;;5010798;28;20026;-73
2022/01/22 05:51:39;;;;;;;1.23;0.50;;;6.40;99.90;;;;;;5011386;28;20293;-73
2022/01/22 05:59:39;;;;;;;3.00;1.00;;;6.40;99.90;;;;;;5010420;28;20034;-74
2022/01/22 06:02:08;;;;;;;2.08;1.10;;;6.30;99.90;;;;;;5009926;28;20104;-72
2022/01/22 06:04:33;;;;;;;6.85;1.15;;;6.40;99.90;;;;;;5009412;28;20030;-74
2022/01/22 06:07:00;;;;;;;11.52;2.35;;;6.40;99.90;;;;;;5009925;28;20051;-74
2022/01/22 06:09:26;;;;;;;5.10;1.40;;;6.40;99.90;;;;;;5010071;28;20040;-74
2022/01/22 06:11:56;;;;;;;6.97;2.00;;;6.40;99.90;;;;;;5010998;28;20031;-72
2022/01/22 06:14:22;;;;;;;4.63;1.35;;;6.40;99.90;;;;;;5010960;28;20037;-73
2022/01/22 06:16:48;;;;;;;7.60;1.40;;;6.40;99.90;;;;;;5009421;28;20411;-74
2022/01/22 06:19:14;;;;;;;2.45;1.00;;;6.40;99.90;;;;;;5011168;28;20026;-73
2022/01/22 06:21:39;;;;;;;6.72;1.13;;;6.40;99.90;;;;;;5011216;28;20031;-73
2022/01/22 06:24:06;;;;;;;1.15;0.60;;;6.40;99.90;;;;;;5009456;28;20454;-74
2022/01/22 06:26:32;;;;;;;3.38;1.30;;;6.40;99.90;;;;;;5007263;28;20037;-74
2022/01/22 06:28:59;;;;;;;2.67;0.93;;;6.40;99.90;;;;;;5005989;28;20034;-73
2022/01/22 06:31:24;;;;;;;1.92;0.95;;;6.40;99.90;;;;;;5007363;28;20026;-73
2022/01/22 06:33:50;;;;;;;2.38;1.08;;;6.40;99.90;;;;;;5007207;28;20355;-73
2022/01/22 06:36:15;;;;;;;6.40;0.68;;;6.40;99.90;;;;;;5007520;28;20050;-73
2022/01/22 06:38:41;;;;;;;3.83;0.93;;;6.40;99.90;;;;;;5007165;28;20078;-72
2022/01/22 06:43:51;;;;;;;;;;;6.40;99.90;;;;;;5008221;28;20041;-73
2022/01/22 06:46:17;;;;;;;0.88;0.77;;;6.40;99.90;;;;;;4989155;28;19906;-72
2022/01/22 06:48:42;;;;;;;6.95;1.55;;;6.40;99.90;;;;;;5006489;28;20031;-73
2022/01/22 06:51:09;;;;;;;10.15;1.40;;;6.40;99.90;;;;;;5007761;28;20026;-74
2022/01/22 06:53:40;;;;;;;5.07;0.60;;;6.40;99.90;;;;;;4989415;28;20054;-73
2022/01/22 06:56:07;;;;;;;6.38;0.93;;;6.40;99.90;;;;;;4989621;28;20049;-73
2022/01/22 06:58:32;;;;;;;12.50;1.45;;;6.30;99.90;;;;;;5005576;28;20018;-74
2022/01/22 07:00:58;;;;;;;3.38;0.70;;;6.40;99.90;;;;;;5006946;28;20030;-73
2022/01/22 07:03:23;;;;;;;3.83;1.17;;;6.40;99.90;;;;;;5005727;28;20514;-73
2022/01/22 07:05:49;;;;;;;8.05;1.17;;;6.30;99.90;;;;;;5004180;28;20031;-74
2022/01/22 07:08:15;;;;;;;3.72;1.63;;;6.30;99.90;;;;;;5006894;28;20030;-73
2022/01/22 07:10:41;;;;;;;3.67;1.23;;;6.30;99.90;;;;;;5006937;28;20054;-74
2022/01/22 07:13:09;;;;;;;14.15;1.88;;;6.40;99.90;;;;;;5002943;28;20727;-75
2022/01/22 07:15:34;;;;;;;1.40;0.82;;;6.30;99.90;;;;;;5002070;28;20420;-73
2022/01/22 07:18:01;;;;;;;9.35;1.50;;;6.30;99.90;;;;;;4991126;28;20038;-74
2022/01/22 07:20:29;;;;;;;2.35;1.33;;;6.40;99.90;;;;;;4985220;28;20026;-74
2022/01/22 07:23:12;;;;;;;3.63;1.08;;;6.30;99.90;;;;;;5003949;28;20473;-74
2022/01/22 07:25:38;;;;;;;11.63;1.60;;;6.40;99.90;;;;;;5007259;28;20023;-73
2022/01/22 07:28:04;;;;;;;3.05;1.58;;;6.30;99.90;;;;;;4988491;28;20101;-71
2022/01/22 07:30:30;;;;;;;3.85;1.08;;;6.30;99.90;;;;;;5004841;28;20061;-71
2022/01/22 07:32:56;;;;;;;0.93;0.60;;;6.30;99.90;;;;;;5006562;28;20426;-73
2022/01/22 07:35:21;;;;;;;4.38;1.15;;;6.30;99.90;;;;;;5001459;28;20034;-73
2022/01/22 07:37:47;;;;;;;8.07;1.42;;;6.30;99.90;;;;;;4998019;28;20031;-73
2022/01/22 07:40:17;;;;;;;14.00;2.22;;;6.30;99.90;;;;;;5005442;28;20026;-76
2022/01/22 07:42:43;;;;;;;2.80;1.15;;;6.30;99.90;;;;;;5006367;28;20026;-73
2022/01/22 07:45:11;;;;;;;2.30;1.00;;;6.30;99.90;;;;;;5005263;28;20586;-75
2022/01/22 07:47:37;;;;;;;2.97;1.30;;;6.30;99.90;;;;;;5004979;28;20023;-72
2022/01/22 07:50:04;;;;;;;1.60;0.85;;;6.40;99.90;;;;;;5003859;28;20038;-73
2022/01/22 07:52:30;;;;;;;4.75;1.83;;;6.40;99.90;;;;;;5006324;28;20266;-73
2022/01/22 07:54:56;;;;;;;8.80;2.08;;;6.40;99.90;;;;;;5006222;28;20399;-72
2022/01/22 07:57:21;;;;;;;7.32;1.20;;;6.30;99.90;;;;;;5005754;28;20462;-72
2022/01/22 07:59:47;;;;;;;6.05;1.70;;;6.40;99.90;;;;;;5005256;28;20418;-72
2022/01/22 08:02:15;;;;;;;11.50;1.40;;;6.40;99.90;;;;;;5004994;28;20511;-73
2022/01/22 08:04:42;;;;;;;6.53;1.17;;;6.40;99.90;;;;;;5004358;28;20037;-73
2022/01/22 08:07:08;;;;;;;10.50;1.60;;;6.40;99.90;;;;;;5005760;28;20057;-74
2022/01/22 08:09:34;;;;;;;8.48;1.77;;;6.40;99.90;;;;;;5003716;28;20132;-73
2022/01/22 08:12:01;;;;;;;4.00;1.15;;;6.40;99.90;;;;;;5005711;28;20034;-73
2022/01/22 08:14:27;;;;;;;19.85;2.05;;;6.40;99.90;;;;;;4988030;28;20466;-72
2022/01/22 08:16:52;;;;;;;3.33;1.20;;;6.40;99.90;;;;;;5001956;28;20114;-74
2022/01/22 08:19:18;;;;;;;8.07;1.52;;;6.50;99.90;;;;;;4993536;28;20098;-74
2022/01/22 08:21:45;;;;;;;10.20;2.90;;;6.50;99.90;;;;;;5000857;28;20037;-77
2022/01/22 08:24:14;;;;;;;11.68;1.45;;;6.40;99.90;;;;;;5003181;28;20022;-75
2022/01/22 08:26:53;;;;;;;2.47;1.05;;;6.50;99.90;;;;;;4986992;28;20055;-75
2022/01/22 08:29:19;;;;;;;3.20;0.95;;;6.50;99.90;;;;;;5000129;28;20038;-73
2022/01/22 08:32:02;;;;;;;12.13;1.05;;;6.50;99.90;;;;;;4985897;28;20031;-75
2022/01/22 08:37:13;;;;;;;3.30;1.20;;;6.60;99.90;;;;;;5005521;28;20045;-74
2022/01/22 08:39:49;;;;;;;7.15;1.85;;;6.60;99.90;;;;;;5005460;28;20030;-73
2022/01/22 08:42:14;;;;;;;1.52;0.85;;;6.60;99.90;;;;;;5005247;28;20033;-74
2022/01/22 08:44:41;;;;;;;10.20;1.80;;;6.70;99.90;;;;;;5004102;28;20026;-74
2022/01/22 08:47:17;;;;;;;1.92;1.08;;;6.70;99.90;;;;;;4988051;28;20096;-75
2022/01/22 08:49:44;;;;;;;1.00;0.55;;;6.70;99.90;;;;;;5004010;28;20070;-73
2022/01/22 08:52:14;;;;;;;2.63;0.90;;;6.70;99.90;;;;;;5005051;28;20117;-75
2022/01/22 08:54:42;;;;;;;0.40;0.35;;;6.70;99.90;;;;;;5005429;28;20015;-74
2022/01/22 08:57:10;;;;;;;2.53;0.95;;;6.80;99.90;;;;;;5001703;28;20034;-75
2022/01/22 08:59:36;;;;;;;2.90;0.65;;;6.80;99.90;;;;;;5002177;28;20038;-74
2022/01/22 09:02:03;;;;;;;6.07;0.50;;;6.80;99.90;;;;;;5002226;28;20064;-74
2022/01/22 09:04:30;;;;;;;0.90;0.50;;;6.80;99.90;;;;;;4991144;28;20446;-74
2022/01/22 09:06:57;;;;;;;1.33;0.52;;;6.90;99.90;;;;;;4986220;28;20128;-75
2022/01/22 09:09:23;;;;;;;1.52;0.88;;;6.90;99.90;;;;;;4990772;28;20023;-73
2022/01/22 09:11:49;;;;;;;1.35;0.82;;;6.90;99.90;;;;;;4985180;28;20062;-72
2022/01/22 09:14:16;;;;;;;1.25;0.40;;;6.90;99.90;;;;;;4992060;28;20034;-74
2022/01/22 09:16:44;;;;;;;0.95;0.80;;;6.90;99.90;;;;;;5003985;28;20077;-75
2022/01/22 09:19:11;;;;;;;1.65;0.70;;;6.90;99.90;;;;;;4982921;28;20402;-73
2022/01/22 09:21:42;;;;;;;2.20;1.00;;;6.90;99.90;;;;;;5000073;28;20049;-73
2022/01/22 09:24:08;;;;;;;0.75;0.40;;;6.90;99.90;;;;;;4987124;28;20026;-73
2022/01/22 09:26:35;;;;;;;1.15;0.30;;;6.90;99.90;;;;;;4986065;28;20085;-73
2022/01/22 09:29:01;;;;;;;0.50;0.25;;;6.90;99.90;;;;;;4999850;28;20642;-73
2022/01/22 09:31:28;;;;;;;6.03;0.40;;;6.90;99.90;;;;;;5000699;28;20479;-74
2022/01/22 09:33:56;;;;;;;0.70;0.25;;;6.90;99.90;;;;;;4999824;28;20033;-73
2022/01/22 09:36:22;;;;;;;0.40;0.32;;;6.90;99.90;;;;;;5004564;28;20053;-73
2022/01/22 09:38:48;;;;;;;0.80;0.30;;;6.90;99.90;;;;;;4979899;28;20113;-72
2022/01/22 09:41:17;;;;;;;1.20;0.40;;;7.00;99.90;;;;;;4985408;28;20038;-73
2022/01/22 09:43:43;;;;;;;0.88;0.30;;;7.00;99.90;;;;;;4966350;28;20042;-74
2022/01/22 09:46:11;;;;;;;1.15;0.40;;;7.00;99.90;;;;;;4997630;28;20034;-73
2022/01/22 09:48:47;;;;;;;2.20;0.47;;;7.00;99.90;;;;;;4999670;28;20399;-75
2022/01/22 09:51:13;;;;;;;0.95;0.40;;;7.00;99.90;;;;;;4993919;28;20042;-76
2022/01/22 09:53:45;;;;;;;2.10;0.43;;;7.00;99.90;;;;;;4994445;28;20034;-75
2022/01/22 09:56:14;;;;;;;5.57;0.40;;;7.00;99.90;;;;;;4977169;28;20088;-74
2022/01/22 09:58:42;;;;;;;1.40;0.52;;;7.10;99.90;;;;;;4988306;28;20032;-73
2022/01/22 10:01:19;;;;;;;0.77;0.40;;;7.00;99.90;;;;;;4999771;28;20030;-73
2022/01/22 10:03:46;;;;;;;1.35;0.50;;;7.00;99.90;;;;;;5004729;28;20019;-75
2022/01/22 10:06:15;;;;;;;0.73;0.73;;;7.10;99.90;;;;;;5006562;28;20027;-74
2022/01/22 10:08:41;;;;;;;2.70;0.45;;;7.10;99.90;;;;;;4994324;28;20088;-72
2022/01/22 10:11:19;;;;;;;1.70;0.50;;;7.00;99.90;;;;;;5002104;28;20026;-76
2022/01/22 10:13:50;;;;;;;0.30;0.30;;;7.00;99.90;;;;;;5006276;28;20053;-74
2022/01/22 10:16:26;;;;;;;1.13;0.82;;;7.00;99.90;;;;;;4995396;28;20106;-73
2022/01/22 10:19:15;;;;;;;0.77;0.32;;;7.00;99.90;;;;;;4989790;28;20085;-73
2022/01/22 10:21:47;;;;;;;0.82;0.35;;;7.00;99.90;;;;;;4988363;28;20042;-75
2022/01/22 10:24:38;;;;;;;1.60;0.25;;;7.00;99.90;;;;;;4988886;28;20050;-74
2022/01/22 10:27:29;;;;;;;2.40;0.55;;;7.10;99.90;;;;;;4997103;28;20503;-76
2022/01/22 10:30:19;;;;;;;0.77;0.57;;;7.10;99.90;;;;;;5002961;28;20026;-77
2022/01/22 10:33:00;;;;;;;0.73;0.43;;;7.10;99.90;;;;;;4986853;28;20425;-74
2022/01/22 10:35:27;;;;;;;1.30;0.50;;;7.10;99.90;;;;;;4996266;28;20068;-75
2022/01/22 10:37:59;;;;;;;0.65;0.47;;;7.20;99.90;;;;;;5005213;28;20040;-76
2022/01/22 10:40:29;;;;;;;2.42;0.30;;;7.20;99.90;;;;;;4984230;28;20053;-76
2022/01/22 10:43:29;;;;;;;5.07;0.60;;;7.20;99.90;;;;;;4979865;28;20038;-78
2022/01/22 10:46:11;;;;;;;1.38;0.45;;;7.10;99.90;;;;;;4993252;28;20121;-77
2022/01/22 10:48:43;;;;;;;0.30;0.30;;;7.00;99.90;;;;;;4993353;28;20433;-78
2022/01/22 10:51:11;;;;;;;4.68;0.52;;;7.00;99.90;;;;;;5017302;28;20037;-74
2022/01/22 10:54:00;;;;;;;8.63;0.70;;;7.10;99.90;;;;;;5012199;28;20026;-75
2022/01/22 10:56:28;;;;;;;1.55;0.30;;;7.10;99.90;;;;;;5009783;28;20061;-75
2022/01/22 10:59:12;;;;;;;1.08;0.68;;;7.10;99.90;;;;;;5014212;28;20158;-74
2022/01/22 11:02:01;;;;;;;1.88;0.55;;;7.20;99.90;;;;;;5006285;28;20034;-73
2022/01/22 11:04:28;;;;;;;0.70;0.30;;;7.30;99.90;;;;;;5004874;28;20054;-74
2022/01/22 11:06:57;;;;;;;0.55;0.50;;;7.30;99.90;;;;;;5000677;28;20022;-74
2022/01/22 11:09:24;;;;;;;0.45;0.30;;;7.30;99.90;;;;;;5006492;28;20060;-76
2022/01/22 11:11:51;;;;;;;0.15;0.10;;;7.30;99.90;;;;;;5012673;28;20057;-76
2022/01/22 11:14:17;;;;;;;0.80;0.32;;;7.20;99.90;;;;;;5024069;28;20034;-77
2022/01/22 11:16:46;;;;;;;0.40;0.20;;;7.20;99.90;;;;;;5005431;28;20098;-77
2022/01/22 11:19:16;;;;;;;0.52;0.43;;;7.30;99.90;;;;;;5007192;28;20122;-75
2022/01/22 11:21:46;;;;;;;3.60;0.52;;;7.30;99.90;;;;;;5002133;28;20038;-76
2022/01/22 11:24:23;;;;;;;0.20;0.20;;;7.20;99.90;;;;;;4987449;28;20027;-76
2022/01/22 11:26:52;;;;;;;0.55;0.22;;;7.30;99.90;;;;;;5006692;28;20354;-74
2022/01/22 11:29:25;;;;;;;1.55;0.38;;;7.30;99.90;;;;;;5006932;28;20150;-76
2022/01/22 11:31:53;;;;;;;0.10;0.05;;;7.40;99.90;;;;;;5005887;28;20040;-74
2022/01/22 11:34:24;;;;;;;0.63;0.38;;;7.40;99.90;;;;;;5006277;28;20042;-75
2022/01/22 11:37:22;;;;;;;2.00;1.02;;;7.40;99.90;;;;;;5004667;28;20042;-74
2022/01/22 11:40:13;;;;;;;1.70;0.98;;;7.50;99.90;;;;;;5011632;28;20022;-75
2022/01/22 11:43:09;;;;;;;0.10;0.10;;;7.60;99.90;;;;;;5025066;28;20034;-75
2022/01/22 11:45:53;;;;;;;0.60;0.28;;;7.50;99.90;;;;;;5025774;28;20386;-76
2022/01/22 11:48:23;;;;;;;0.10;0.10;;;7.50;99.90;;;;;;5024900;28;20029;-75
2022/01/22 11:50:51;;;;;;;0.65;0.40;;;7.60;99.90;;;;;;5026071;28;20034;-74
2022/01/22 11:53:29;;;;;;;0.10;0.10;;;7.60;99.90;;;;;;5019566;28;20150;-75
2022/01/22 11:56:21;;;;;;;0.10;0.10;;;7.60;99.90;;;;;;5000162;28;20045;-78
2022/01/22 11:58:59;;;;;;;0.30;0.20;;;7.70;99.90;;;;;;5025850;28;20566;-74
2022/01/22 12:02:03;;;;;;;0.43;0.10;;;7.80;99.90;;;;;;5025854;28;20092;-75
2022/01/22 12:04:38;;;;;;;2.30;0.30;;;7.90;99.90;;;;;;5025175;28;20033;-75
2022/01/22 12:07:03;;;;;;;2.97;0.63;;;7.80;99.90;;;;;;5025186;28;20029;-75
2022/01/22 12:10:16;;;;;;;0.45;0.00;;;7.80;99.90;;;;;;5023143;28;20080;-74
2022/01/22 12:15:34;;;;;;;0.05;0.05;;;7.90;99.90;;;;;;5010397;28;20548;-75
2022/01/22 12:18:13;;;;;;;0.08;0.08;;;8.00;99.90;;;;;;5024357;28;20080;-75
2022/01/22 12:21:30;;;;;;;0.52;0.30;;;7.90;99.90;;;;;;5006109;28;20034;-77
2022/01/22 12:23:37;;;;;;;2.97;0.30;;;7.80;99.90;;;;;;5005139;28;20475;-75
2022/01/22 12:26:04;;;;;;;5.57;0.57;;;7.70;99.90;;;;;;5005732;28;20043;-75
2022/01/22 12:28:46;;;;;;;0.43;0.20;;;7.60;99.90;;;;;;5005480;28;20018;-74
2022/01/22 12:31:20;;;;;;;1.08;0.10;;;7.70;99.90;;;;;;5005962;28;20054;-75
2022/01/22 12:33:53;;;;;;;1.20;0.20;;;7.50;99.90;;;;;;5004080;28;20065;-73
2022/01/22 12:36:25;;;;;;;0.03;0.00;;;7.50;99.90;;;;;;5003943;28;20042;-74
2022/01/22 12:39:11;;;;;;;4.32;0.10;;;7.50;99.90;;;;;;5003961;28;20297;-74
2022/01/22 12:44:45;;;;;;;0.00;0.00;;;7.40;99.90;;;;;;5005913;28;20096;-73
2022/01/22 12:47:09;;;;;;;0.10;0.10;;;7.40;99.90;;;;;;5005104;28;20034;-74
2022/01/22 12:49:36;;;;;;;0.30;0.30;;;7.30;99.90;;;;;;5003698;28;20494;-74
2022/01/22 12:52:06;;;;;;;0.70;0.20;;;7.40;99.90;;;;;;5004845;28;20018;-72
2022/01/22 12:54:36;;;;;;;0.98;0.15;;;7.50;99.90;;;;;;5005328;28;20026;-71
2022/01/22 12:57:03;;;;;;;0.73;0.17;;;7.40;99.90;;;;;;5003312;28;20554;-74
2022/01/22 12:59:32;;;;;;;2.92;0.47;;;7.40;99.90;;;;;;5005453;28;20092;-73
2022/01/22 13:01:57;;;;;;;0.20;0.20;;;7.30;99.90;;;;;;5004953;28;20052;-73
2022/01/22 13:04:23;;;;;;;0.20;0.20;;;7.30;99.90;;;;;;5004676;28;20090;-72
2022/01/22 13:06:53;;;;;;;0.57;0.32;;;7.30;99.90;;;;;;5004043;28;20031;-76
2022/01/22 13:09:19;;;;;;;1.02;0.47;;;7.30;99.90;;;;;;5004671;28;20022;-73
2022/01/22 13:11:51;;;;;;;0.00;0.00;;;7.40;99.90;;;;;;5005103;28;20037;-74
2022/01/22 13:14:27;;;;;;;1.80;0.30;;;7.50;99.90;;;;;;5004893;28;20019;-74
2022/01/22 13:16:54;;;;;;;3.67;0.52;;;7.80;99.90;;;;;;5004225;28;20121;-73
2022/01/22 13:19:21;;;;;;;1.10;0.40;;;8.20;99.90;;;;;;5004598;28;20037;-74
2022/01/22 13:21:54;;;;;;;3.92;0.35;;;8.20;99.90;;;;;;5003826;28;20360;-73
2022/01/22 13:24:25;;;;;;;0.70;0.20;;;8.20;99.90;;;;;;5003486;28;20094;-75
2022/01/22 13:29:41;;;;;;;4.00;0.90;;;8.20;99.90;;;;;;4990553;28;20037;-75
2022/01/22 13:32:22;;;;;;;1.55;0.40;;;8.10;99.90;;;;;;4985294;28;20038;-73
2022/01/22 13:35:18;;;;;;;1.02;0.15;;;8.00;99.90;;;;;;4985437;28;20031;-74
2022/01/22 13:49:27;;;;;;;0.00;0.00;;;7.50;99.90;;;;;;5008192;28;20088;-74
2022/01/22 13:52:19;;;;;;;0.38;0.15;;;7.50;99.90;;;;;;5007355;28;20454;-75
2022/01/22 13:54:54;;;;;;;11.35;0.47;;;7.50;99.90;;;;;;5007514;28;20038;-74
2022/01/22 13:57:25;;;;;;;0.65;0.38;;;7.50;99.90;;;;;;4989450;28;20506;-76
2022/01/22 13:59:57;;;;;;;0.57;0.47;;;7.50;99.90;;;;;;5002794;28;20467;-78
2022/01/22 14:05:00;;;;;;;0.38;0.10;;;7.40;99.90;;;;;;5007446;28;20061;-74
2022/01/22 14:07:40;;;;;;;0.17;0.17;;;7.40;99.90;;;;;;5011449;28;20441;-75
2022/01/22 14:10:08;;;;;;;0.50;0.43;;;7.40;99.90;;;;;;5019087;28;20030;-73
2022/01/22 14:12:48;;;;;;;1.23;0.50;;;7.20;99.90;;;;;;5019671;28;20068;-73
2022/01/22 14:15:23;;;;;;;2.25;1.00;;;7.10;99.90;;;;;;5020221;28;20054;-74
2022/01/22 14:18:14;;;;;;;4.03;1.75;;;7.10;99.90;;;;;;5001740;28;20042;-76
2022/01/22 14:20:46;;;;;;;2.83;0.95;;;7.00;99.90;;;;;;5005277;28;20479;-75
2022/01/22 14:23:24;;;;;;;1.27;0.40;;;7.00;99.90;;;;;;5018773;28;20087;-75
2022/01/22 14:26:05;;;;;;;4.70;0.93;;;7.00;99.90;;;;;;5007119;28;20030;-76
2022/01/22 14:28:42;;;;;;;5.53;1.92;;;7.00;99.90;;;;;;5007263;28;20106;-75
2022/01/22 14:31:57;;;;;;;2.97;1.80;;;6.90;99.90;;;;;;5010749;28;20026;-76
2022/01/22 14:34:33;;;;;;;3.03;0.90;;;6.90;99.90;;;;;;5014167;28;20062;-74
2022/01/22 14:37:02;;;;;;;4.63;2.58;;;6.80;99.90;;;;;;4987934;28;20038;-75
2022/01/22 14:45:29;;;;;;;;;;;6.90;99.90;;;;;;5004245;28;20050;-74
2022/01/22 14:47:58;;;;;;;4.63;1.52;;;6.80;99.90;;;;;;4986699;28;19906;-76
2022/01/22 14:50:25;;;;;;;5.03;2.00;;;6.80;99.90;;;;;;4987970;28;20031;-74
2022/01/22 14:52:58;;;;;;;2.92;1.27;;;6.80;99.90;;;;;;4986511;28;20027;-75
2022/01/22 14:55:29;;;;;;;5.00;1.50;;;6.80;99.90;;;;;;4987671;28;20037;-73
2022/01/22 14:57:55;;;;;;;19.40;6.53;;;6.80;99.90;;;;;;4988029;28;20108;-74
2022/01/22 15:00:21;;;;;;;3.55;1.65;;;6.80;99.90;;;;;;4996078;28;20030;-76
2022/01/22 15:02:51;;;;;;;8.48;2.05;;;6.70;99.90;;;;;;4984570;28;20053;-77
2022/01/22 15:05:17;;;;;;;3.67;1.23;;;6.70;99.90;;;;;;5003805;28;20031;-74
2022/01/22 15:07:46;;;;;;;12.95;5.10;;;6.80;99.90;;;;;;4989019;28;20078;-75
2022/01/22 15:10:15;;;;;;;5.10;2.20;;;6.70;99.90;;;;;;5001131;28;20037;-75
2022/01/22 15:12:44;;;;;;;5.47;1.10;;;6.70;99.90;;;;;;4977500;28;20029;-74